createdAt,value
2019-04-29T00:02:09.256Z,19.43
2019-04-29T00:04:39.763Z,21.07
2019-04-29T00:07:10.301Z,20.40
2019-04-29T00:09:40.733Z,20.80
2019-04-29T00:12:11.202Z,19.40
2019-04-29T00:14:43.281Z,21.50
2019-04-29T00:17:15.321Z,20.60
2019-04-29T00:19:47.461Z,21.53
2019-04-29T00:22:17.938Z,21.07
2019-04-29T00:24:48.377Z,20.13
2019-04-29T00:27:18.772Z,20.50
2019-04-29T00:29:49.277Z,22.53
2019-04-29T00:32:20.648Z,21.77
2019-04-29T00:34:51.140Z,21.13
2019-04-29T00:37:23.243Z,21.93
2019-04-29T00:40:07.708Z,21.30
2019-04-29T00:42:39.749Z,21.53
2019-04-29T00:45:10.495Z,21.03
2019-04-29T00:47:40.926Z,21.93
2019-04-29T00:50:11.600Z,21.03
2019-04-29T00:52:43.113Z,20.40
2019-04-29T00:55:18.146Z,21.20
2019-04-29T00:57:48.578Z,21.53
2019-04-29T01:00:26.998Z,21.53
2019-04-29T01:02:57.731Z,22.90
2019-04-29T01:05:28.198Z,20.33
2019-04-29T01:07:58.640Z,21.67
2019-04-29T01:10:29.042Z,21.90
2019-04-29T01:12:59.540Z,22.70
2019-04-29T01:15:30.006Z,23.80
2019-04-29T01:18:00.836Z,21.83
2019-04-29T01:20:31.232Z,24.77
2019-04-29T01:23:01.675Z,22.60
2019-04-29T01:25:32.070Z,22.70
2019-04-29T01:28:09.867Z,21.47
2019-04-29T01:31:06.047Z,24.47
2019-04-29T01:33:36.544Z,23.90
2019-04-29T01:36:08.657Z,24.77
2019-04-29T01:38:40.060Z,24.77
2019-04-29T01:41:15.050Z,23.27
2019-04-29T01:44:04.315Z,24.63
2019-04-29T01:46:34.713Z,26.37
2019-04-29T01:49:05.590Z,26.20
2019-04-29T01:51:35.993Z,26.87
2019-04-29T01:54:06.611Z,26.40
2019-04-29T01:56:37.068Z,27.17
2019-04-29T01:59:07.512Z,25.87
2019-04-29T02:01:37.971Z,25.80
2019-04-29T02:04:08.477Z,27.40
2019-04-29T02:06:38.939Z,29.13
2019-04-29T02:09:11.082Z,28.87
2019-04-29T02:11:41.546Z,29.10
2019-04-29T02:14:12.065Z,29.10
2019-04-29T02:16:42.496Z,30.93
2019-04-29T02:19:12.925Z,31.03
2019-04-29T02:21:44.965Z,31.17
2019-04-29T02:24:17.146Z,30.93
2019-04-29T02:26:47.545Z,29.00
2019-04-29T02:29:17.987Z,32.10
2019-04-29T02:31:48.458Z,32.17
2019-04-29T02:34:19.069Z,32.33
2019-04-29T02:36:49.646Z,32.77
2019-04-29T02:39:33.949Z,34.57
2019-04-29T02:42:22.306Z,32.83
2019-04-29T02:44:53.441Z,32.67
2019-04-29T02:47:23.877Z,33.33
2019-04-29T02:49:54.277Z,33.60
2019-04-29T02:52:24.714Z,35.57
2019-04-29T02:54:56.748Z,35.23
2019-04-29T02:57:31.613Z,35.97
2019-04-29T03:00:19.859Z,34.83
2019-04-29T03:03:09.480Z,34.57
2019-04-29T03:05:41.552Z,34.83
2019-04-29T03:08:12.006Z,37.53
2019-04-29T03:10:42.472Z,35.57
2019-04-29T03:13:12.918Z,36.67
2019-04-29T03:15:44.651Z,35.27
2019-04-29T03:18:15.164Z,35.27
2019-04-29T03:20:50.079Z,36.70
2019-04-29T03:23:22.276Z,35.77
2019-04-29T03:25:52.749Z,38.33
2019-04-29T03:28:23.275Z,38.13
2019-04-29T03:30:53.742Z,42.17
2019-04-29T03:33:24.646Z,39.73
2019-04-29T03:35:55.224Z,41.63
2019-04-29T03:38:25.824Z,42.70
2019-04-29T03:40:56.373Z,42.87
2019-04-29T03:43:40.831Z,44.27
2019-04-29T03:46:18.700Z,44.50
2019-04-29T03:48:56.162Z,43.50
2019-04-29T03:51:35.191Z,44.10
2019-04-29T03:54:13.141Z,46.10
2019-04-29T03:56:48.574Z,44.17
2019-04-29T03:59:25.617Z,44.93
2019-04-29T04:02:10.427Z,48.27
2019-04-29T04:05:10.905Z,45.50
2019-04-29T04:07:55.344Z,46.60
2019-04-29T04:10:33.708Z,47.60
2019-04-29T04:13:11.555Z,47.37
2019-04-29T04:15:43.404Z,48.20
2019-04-29T04:18:21.543Z,47.17
2019-04-29T04:20:52.200Z,46.30
2019-04-29T04:23:22.598Z,46.00
2019-04-29T04:25:53.180Z,47.17
2019-04-29T04:28:23.575Z,46.57
2019-04-29T04:30:55.416Z,48.83
2019-04-29T04:33:25.812Z,46.00
2019-04-29T04:35:56.253Z,44.17
2019-04-29T04:38:30.660Z,44.10
2019-04-29T04:41:02.737Z,43.80
2019-04-29T04:43:33.130Z,44.37
2019-04-29T04:46:03.880Z,43.57
2019-04-29T04:48:34.277Z,43.40
2019-04-29T04:51:04.784Z,41.40
2019-04-29T04:53:35.179Z,45.50
2019-04-29T04:56:05.697Z,47.03
2019-04-29T04:58:36.099Z,45.27
2019-04-29T05:01:06.550Z,44.23
2019-04-29T05:03:37.019Z,44.30
2019-04-29T05:06:07.449Z,44.80
2019-04-29T05:08:37.844Z,43.47
2019-04-29T05:11:08.286Z,42.23
2019-04-29T05:13:38.686Z,42.13
2019-04-29T05:16:09.140Z,42.60
2019-04-29T05:18:39.534Z,39.93
2019-04-29T05:21:09.970Z,40.47
2019-04-29T05:23:41.766Z,38.50
2019-04-29T05:26:12.293Z,39.13
2019-04-29T05:28:42.697Z,39.90
2019-04-29T05:31:13.135Z,39.87
2019-04-29T05:33:43.526Z,37.70
2019-04-29T05:36:25.091Z,39.83
2019-04-29T05:38:57.125Z,38.97
2019-04-29T05:41:30.237Z,36.67
2019-04-29T05:44:04.032Z,37.70
2019-04-29T05:46:36.110Z,37.40
2019-04-29T05:49:08.987Z,36.63
2019-04-29T05:51:43.927Z,35.03
2019-04-29T05:54:15.968Z,34.50
2019-04-29T05:56:46.406Z,35.83
2019-04-29T05:59:16.808Z,33.73
2019-04-29T06:01:48.907Z,33.10
2019-04-29T06:04:19.399Z,34.13
2019-04-29T06:06:49.842Z,31.47
2019-04-29T06:09:23.343Z,31.47
2019-04-29T06:11:53.778Z,30.50
2019-04-29T06:14:24.231Z,31.30
2019-04-29T06:16:57.738Z,29.00
2019-04-29T06:19:27.205Z,28.93
2019-04-29T06:21:58.143Z,30.27
2019-04-29T06:24:31.671Z,27.60
2019-04-29T06:27:02.201Z,27.07
2019-04-29T06:29:32.674Z,27.47
2019-04-29T06:32:03.212Z,25.90
2019-04-29T06:34:35.526Z,26.47
2019-04-29T06:37:06.354Z,26.37
2019-04-29T06:39:36.998Z,25.33
2019-04-29T06:42:08.007Z,22.83
2019-04-29T06:44:39.697Z,24.27
2019-04-29T06:47:10.285Z,23.77
2019-04-29T06:49:43.490Z,25.73
2019-04-29T06:52:14.001Z,23.10
2019-04-29T06:54:44.832Z,22.00
2019-04-29T06:57:15.310Z,22.33
2019-04-29T06:59:47.478Z,19.70
2019-04-29T07:02:17.860Z,19.93
2019-04-29T07:04:48.323Z,20.67
2019-04-29T07:07:18.790Z,20.40
2019-04-29T07:09:50.300Z,20.10
2019-04-29T07:12:20.702Z,19.87
2019-04-29T07:14:51.175Z,19.40
2019-04-29T07:17:21.572Z,17.87
2019-04-29T07:19:52.022Z,18.77
2019-04-29T07:22:25.868Z,18.63
2019-04-29T07:24:54.610Z,17.50
2019-04-29T07:27:25.029Z,18.00
2019-04-29T07:29:55.466Z,17.53
2019-04-29T07:32:25.880Z,15.70
2019-04-29T07:34:56.316Z,17.33
2019-04-29T07:37:29.742Z,17.63
2019-04-29T07:39:58.868Z,15.27
2019-04-29T07:42:32.338Z,15.87
2019-04-29T07:45:14.742Z,15.13
2019-04-29T07:47:56.218Z,14.50
2019-04-29T07:50:22.298Z,15.15
2019-04-29T07:52:51.317Z,14.73
2019-04-29T07:55:26.104Z,14.78
2019-04-29T07:57:53.929Z,15.25
2019-04-29T08:00:35.463Z,14.07
2019-04-29T08:03:08.344Z,13.13
2019-04-29T08:05:38.849Z,13.25
2019-04-29T08:08:09.247Z,13.45
2019-04-29T08:10:52.563Z,12.90
2019-04-29T08:13:13.404Z,13.78
2019-04-29T08:15:43.845Z,12.45
2019-04-29T08:18:16.267Z,13.62
2019-04-29T08:20:46.383Z,12.58
2019-04-29T08:23:16.849Z,12.58
2019-04-29T08:25:47.292Z,12.50
2019-04-29T08:28:17.694Z,12.10
2019-04-29T08:30:48.124Z,10.98
2019-04-29T08:33:18.530Z,11.57
2019-04-29T08:35:48.966Z,11.60
2019-04-29T08:38:19.364Z,11.40
2019-04-29T08:40:51.573Z,11.48
2019-04-29T08:43:26.596Z,10.82
2019-04-29T08:46:04.485Z,10.03
2019-04-29T08:48:35.853Z,10.32
2019-04-29T08:51:06.289Z,9.53
2019-04-29T08:53:36.679Z,10.30
2019-04-29T08:56:10.168Z,9.43
2019-04-29T08:58:39.586Z,9.15
2019-04-29T09:01:10.102Z,9.33
2019-04-29T09:03:41.110Z,10.18
2019-04-29T09:06:11.881Z,9.15
2019-04-29T09:08:54.186Z,10.00
2019-04-29T09:11:14.621Z,9.85
2019-04-29T09:13:44.996Z,10.08
2019-04-29T09:16:15.431Z,9.25
2019-04-29T09:18:45.950Z,9.33
2019-04-29T09:21:16.404Z,9.05
2019-04-29T09:23:46.879Z,9.25
2019-04-29T09:26:33.542Z,9.28
2019-04-29T09:29:06.019Z,9.00
2019-04-29T09:31:36.523Z,9.18
2019-04-29T09:34:07.123Z,9.35
2019-04-29T09:36:37.593Z,9.63
2019-04-29T09:39:08.158Z,9.33
2019-04-29T09:41:40.912Z,10.03
2019-04-29T09:44:13.911Z,8.95
2019-04-29T09:46:44.526Z,8.85
2019-04-29T09:49:15.218Z,9.05
2019-04-29T09:51:45.884Z,9.63
2019-04-29T09:54:16.395Z,9.25
2019-04-29T09:56:46.793Z,8.70
2019-04-29T09:59:31.124Z,9.25
2019-04-29T10:02:03.266Z,8.88
2019-04-29T10:04:35.620Z,9.05
2019-04-29T10:07:07.689Z,9.58
2019-04-29T10:09:39.097Z,8.58
2019-04-29T10:12:09.632Z,9.28
2019-04-29T10:14:40.079Z,9.73
2019-04-29T10:17:24.108Z,9.05
2019-04-29T10:19:56.590Z,8.95
2019-04-29T10:22:27.222Z,9.25
2019-04-29T10:24:57.654Z,8.80
2019-04-29T10:27:28.115Z,8.60
2019-04-29T10:29:58.889Z,9.55
2019-04-29T10:32:29.285Z,9.43
2019-04-29T10:35:03.780Z,9.60
2019-04-29T10:37:32.724Z,9.10
2019-04-29T10:40:13.424Z,8.95
2019-04-29T10:42:45.538Z,8.90
2019-04-29T10:45:40.442Z,9.08
2019-04-29T10:48:17.503Z,9.15
2019-04-29T10:50:52.132Z,9.60
2019-04-29T10:53:21.822Z,9.80
2019-04-29T10:55:52.324Z,9.68
2019-04-29T10:58:30.211Z,9.20
2019-04-29T11:01:16.218Z,9.10
2019-04-29T11:03:46.863Z,9.55
2019-04-29T11:06:17.377Z,9.13
2019-04-29T11:08:49.542Z,10.45
2019-04-29T11:11:23.253Z,8.63
2019-04-29T11:13:52.302Z,9.27
2019-04-29T11:16:29.461Z,8.75
2019-04-29T11:19:00.161Z,9.50
2019-04-29T11:21:29.547Z,9.15
2019-04-29T11:24:04.840Z,9.30
2019-04-29T11:26:44.744Z,8.53
2019-04-29T11:29:15.300Z,8.35
2019-04-29T11:31:49.124Z,10.05
2019-04-29T11:34:26.447Z,9.38
2019-04-29T11:36:56.944Z,9.63
2019-04-29T11:39:27.382Z,9.13
2019-04-29T11:41:59.678Z,8.93
2019-04-29T11:44:31.952Z,10.03
2019-04-29T11:47:02.492Z,9.93
2019-04-29T11:49:34.599Z,9.35
2019-04-29T11:52:09.578Z,10.10
2019-04-29T11:54:37.305Z,9.80
2019-04-29T11:57:09.400Z,10.13
2019-04-29T11:59:50.290Z,9.53
2019-04-29T12:02:44.783Z,9.65
2019-04-29T12:05:08.599Z,9.45
2019-04-29T12:07:38.102Z,9.87
2019-04-29T12:10:10.381Z,10.18
2019-04-29T12:12:43.659Z,9.73
2019-04-29T12:15:30.610Z,8.93
2019-04-29T12:18:18.670Z,11.07
2019-04-29T12:21:06.627Z,10.23
2019-04-29T12:23:37.106Z,10.23
2019-04-29T12:26:08.156Z,8.60
2019-04-29T12:28:42.711Z,9.13
2019-04-29T12:31:21.547Z,9.58
2019-04-29T12:34:09.966Z,10.28
2019-04-29T12:36:54.830Z,10.55
2019-04-29T12:39:42.382Z,10.98
2019-04-29T12:41:53.888Z,9.63
2019-04-29T12:44:34.966Z,9.70
2019-04-29T12:46:59.690Z,10.25
2019-04-29T12:49:30.128Z,9.98
2019-04-29T12:52:01.440Z,10.30
2019-04-29T12:54:34.347Z,10.23
2019-04-29T12:57:05.009Z,9.88
2019-04-29T12:59:37.339Z,10.28
2019-04-29T13:02:24.496Z,10.55
2019-04-29T13:05:09.414Z,10.43
2019-04-29T13:07:52.361Z,9.93
2019-04-29T13:10:27.163Z,10.53
2019-04-29T13:12:58.665Z,10.87
2019-04-29T13:15:43.932Z,10.00
2019-04-29T13:18:23.437Z,10.78
2019-04-29T13:20:54.231Z,10.48
2019-04-29T13:23:34.932Z,10.93
2019-04-29T13:25:57.891Z,10.23
2019-04-29T13:28:34.350Z,8.65
2019-04-29T13:31:02.541Z,9.73
2019-04-29T13:33:32.944Z,10.50
2019-04-29T13:36:03.745Z,9.63
2019-04-29T13:38:34.455Z,10.13
2019-04-29T13:41:13.403Z,10.20
2019-04-29T13:43:39.351Z,10.63
2019-04-29T13:46:17.753Z,9.60
2019-04-29T13:49:13.221Z,9.75
2019-04-29T13:51:39.613Z,10.20
2019-04-29T13:54:10.154Z,10.50
2019-04-29T13:56:55.479Z,9.10
2019-04-29T13:59:14.380Z,9.97
2019-04-29T14:02:00.251Z,9.97
2019-04-29T14:04:28.880Z,10.08
2019-04-29T14:06:59.440Z,10.03
2019-04-29T14:09:29.858Z,9.67
2019-04-29T14:12:19.946Z,9.50
2019-04-29T14:14:33.359Z,10.97
2019-04-29T14:17:17.421Z,10.70
2019-04-29T14:19:43.238Z,9.87
2019-04-29T14:22:21.381Z,9.23
2019-04-29T14:24:40.652Z,10.60
2019-04-29T14:27:24.699Z,9.80
2019-04-29T14:29:46.139Z,9.73
2019-04-29T14:32:18.341Z,10.83
2019-04-29T14:34:53.438Z,9.80
2019-04-29T14:37:25.474Z,10.20
2019-04-29T14:39:57.259Z,10.20
2019-04-29T14:42:41.462Z,10.57
2019-04-29T14:45:13.773Z,10.07
2019-04-29T14:47:45.989Z,9.87
2019-04-29T14:50:20.508Z,10.97
2019-04-29T14:52:49.346Z,11.73
2019-04-29T14:55:25.045Z,10.83
2019-04-29T14:57:53.180Z,10.70
2019-04-29T15:00:41.840Z,9.30
2019-04-29T15:03:12.949Z,9.70
2019-04-29T15:05:43.404Z,10.07
2019-04-29T15:08:13.895Z,10.13
2019-04-29T15:10:46.173Z,10.10
2019-04-29T15:13:21.138Z,10.90
2019-04-29T15:16:04.469Z,9.57
2019-04-29T15:18:47.504Z,10.00
2019-04-29T15:21:09.506Z,10.10
2019-04-29T15:23:40.134Z,10.83
2019-04-29T15:26:10.632Z,9.93
2019-04-29T15:28:52.534Z,9.67
2019-04-29T15:31:24.877Z,9.17
2019-04-29T15:33:55.272Z,9.60
2019-04-29T15:36:25.781Z,9.50
2019-04-29T15:39:09.007Z,10.03
2019-04-29T15:41:31.015Z,9.40
2019-04-29T15:44:07.695Z,9.00
2019-04-29T15:46:45.621Z,9.93
2019-04-29T15:49:06.622Z,8.97
2019-04-29T15:51:37.144Z,9.03
2019-04-29T15:54:09.214Z,8.93
2019-04-29T15:56:40.942Z,8.53
2019-04-29T15:59:11.410Z,8.70
2019-04-29T16:01:42.501Z,8.50
2019-04-29T16:04:20.848Z,8.60
2019-04-29T16:06:51.487Z,9.23
2019-04-29T16:12:14.377Z,8.93
2019-04-29T16:14:43.135Z,8.53
2019-04-29T16:17:13.899Z,7.93
2019-04-29T16:19:44.407Z,8.60
2019-04-29T16:22:19.995Z,8.93
2019-04-29T16:24:46.970Z,8.90
2019-04-29T16:27:17.367Z,8.27
2019-04-29T16:29:51.690Z,7.90
2019-04-29T16:32:22.789Z,8.67
2019-04-29T16:34:53.230Z,7.97
2019-04-29T16:37:24.937Z,8.00
2019-04-29T16:39:59.750Z,8.17
2019-04-29T16:42:33.975Z,8.30
2019-04-29T16:45:11.977Z,8.93
2019-04-29T16:47:47.545Z,9.43
2019-04-29T16:50:14.934Z,8.30
2019-04-29T16:52:45.430Z,8.30
2019-04-29T16:55:16.463Z,8.43
2019-04-29T16:57:49.193Z,8.37
2019-04-29T17:00:21.764Z,7.90
2019-04-29T17:02:53.939Z,7.93
2019-04-29T17:05:24.402Z,7.47
2019-04-29T17:07:56.616Z,8.33
2019-04-29T17:10:28.863Z,7.80
2019-04-29T17:12:59.383Z,8.50
2019-04-29T17:15:30.469Z,7.20
2019-04-29T17:18:01.144Z,7.60
2019-04-29T17:20:31.650Z,8.03
2019-04-29T17:23:02.065Z,7.93
2019-04-29T17:25:32.565Z,8.70
2019-04-29T17:28:11.868Z,7.40
2019-04-29T17:30:57.778Z,7.87
2019-04-29T17:33:31.256Z,7.03
2019-04-29T17:35:15.560Z,9.20
2019-04-29T17:36:02.200Z,7.73
2019-04-29T17:38:33.039Z,7.43
2019-04-29T17:41:03.482Z,8.13
2019-04-29T17:43:50.679Z,8.07
2019-04-29T17:46:38.393Z,7.27
2019-04-29T17:49:22.142Z,7.13
2019-04-29T17:51:51.567Z,7.40
2019-04-29T17:54:26.659Z,7.60
2019-04-29T17:57:25.591Z,7.13
2019-04-29T18:00:00.620Z,6.87
2019-04-29T18:02:43.095Z,7.30
2019-04-29T18:05:28.133Z,7.27
2019-04-29T18:08:12.685Z,7.40
2019-04-29T18:10:45.822Z,7.60
2019-04-29T18:13:19.066Z,6.97
2019-04-29T18:16:00.766Z,7.03
2019-04-29T18:18:46.547Z,7.60
2019-04-29T18:21:20.760Z,6.63
2019-04-29T18:23:59.247Z,6.83
2019-04-29T18:26:30.122Z,6.93
2019-04-29T18:29:03.457Z,6.00
2019-04-29T18:31:35.548Z,6.17
2019-04-29T18:34:05.827Z,6.00
2019-04-29T18:36:36.256Z,6.80
2019-04-29T18:39:10.185Z,5.63
2019-04-29T18:41:40.986Z,6.70
2019-04-29T18:44:18.909Z,6.40
2019-04-29T18:46:52.739Z,6.70
2019-04-29T18:49:15.988Z,6.33
2019-04-29T18:51:46.595Z,6.90
2019-04-29T18:54:17.161Z,6.60
2019-04-29T18:56:47.591Z,6.17
2019-04-29T18:59:19.838Z,6.80
2019-04-29T19:01:50.125Z,6.10
2019-04-29T19:04:35.516Z,6.60
2019-04-29T19:07:07.203Z,5.87
2019-04-29T19:09:39.238Z,6.33
2019-04-29T19:12:09.749Z,6.50
2019-04-29T19:14:41.779Z,7.27
2019-04-29T19:17:12.428Z,7.00
2019-04-29T19:19:44.898Z,5.77
2019-04-29T19:22:16.744Z,6.03
2019-04-29T19:24:48.240Z,6.30
2019-04-29T19:27:18.828Z,6.27
2019-04-29T19:29:49.360Z,6.47
2019-04-29T19:32:23.226Z,6.67
2019-04-29T19:34:55.023Z,7.20
2019-04-29T19:37:25.378Z,6.60
2019-04-29T19:39:59.498Z,6.23
2019-04-29T19:42:31.399Z,6.17
2019-04-29T19:45:01.158Z,5.50
2019-04-29T19:47:31.578Z,6.80
2019-04-29T19:50:02.399Z,6.13
2019-04-29T19:52:34.836Z,6.87
2019-04-29T19:55:07.172Z,6.60
2019-04-29T19:57:42.369Z,6.80
2019-04-29T20:00:10.921Z,6.83
2019-04-29T20:02:49.430Z,6.40
2019-04-29T20:05:31.562Z,6.13
2019-04-29T20:07:59.368Z,6.50
2019-04-29T20:10:31.419Z,5.83
2019-04-29T20:13:02.809Z,6.03
2019-04-29T20:15:37.622Z,6.67
2019-04-29T20:18:23.592Z,6.10
2019-04-29T20:21:08.087Z,6.67
2019-04-29T20:23:37.032Z,6.90
2019-04-29T20:26:13.808Z,6.00
2019-04-29T20:28:37.388Z,6.60
2019-04-29T20:31:16.265Z,6.30
2019-04-29T20:33:42.146Z,6.17
2019-04-29T20:36:13.802Z,6.90
2019-04-29T20:38:45.447Z,6.23
2019-04-29T20:41:18.111Z,5.83
2019-04-29T20:43:48.510Z,6.00
2019-04-29T20:46:19.477Z,5.97
2019-04-29T20:48:54.415Z,5.97
2019-04-29T20:51:23.275Z,6.70
2019-04-29T20:53:56.310Z,6.83
2019-04-29T20:56:29.813Z,5.90
2019-04-29T20:59:02.089Z,6.00
2019-04-29T21:01:43.106Z,6.13
2019-04-29T21:04:11.594Z,5.93
2019-04-29T21:06:57.557Z,5.63
2019-04-29T21:09:16.478Z,6.03
2019-04-29T21:12:00.185Z,5.63
2019-04-29T21:14:38.138Z,5.60
2019-04-29T21:17:11.192Z,5.27
2019-04-29T21:19:42.199Z,6.50
2019-04-29T21:22:23.464Z,5.43
2019-04-29T21:24:53.939Z,5.90
2019-04-29T21:27:26.010Z,6.23
2019-04-29T21:29:57.224Z,5.60
2019-04-29T21:32:30.553Z,5.40
2019-04-29T21:35:02.055Z,5.43
2019-04-29T21:37:46.678Z,6.20
2019-04-29T21:40:20.301Z,6.57
2019-04-29T21:42:52.717Z,5.77
2019-04-29T21:45:23.305Z,5.80
2019-04-29T21:47:55.303Z,5.63
2019-04-29T21:50:27.155Z,6.50
2019-04-29T21:53:02.128Z,5.80
2019-04-29T21:55:30.206Z,5.63
2019-04-29T21:58:00.835Z,5.57
2019-04-29T22:00:31.425Z,5.70
2019-04-29T22:03:05.324Z,5.30
2019-04-29T22:05:35.777Z,5.47
2019-04-29T22:08:06.347Z,5.17
2019-04-29T22:10:37.410Z,5.13
2019-04-29T22:13:08.677Z,5.07
2019-04-29T22:15:42.479Z,5.60
2019-04-29T22:18:13.994Z,5.70
2019-04-29T22:20:44.745Z,5.40
2019-04-29T22:23:17.232Z,6.00
2019-04-29T22:25:47.542Z,5.20
2019-04-29T22:28:19.833Z,5.23
2019-04-29T22:30:54.774Z,5.93
2019-04-29T22:33:25.235Z,5.60
2019-04-29T22:35:55.893Z,5.80
2019-04-29T22:38:26.475Z,5.47
2019-04-29T22:40:58.548Z,5.67
2019-04-29T22:43:30.780Z,5.50
2019-04-29T22:46:04.815Z,6.30
2019-04-29T22:48:35.406Z,5.13
2019-04-29T22:51:10.083Z,6.17
2019-04-29T22:53:40.035Z,5.90
2019-04-29T22:56:14.257Z,6.40
2019-04-29T22:58:43.787Z,6.60
2019-04-29T23:01:15.653Z,5.90
2019-04-29T23:03:47.359Z,5.97
2019-04-29T23:06:17.742Z,5.30
2019-04-29T23:08:48.167Z,6.07
2019-04-29T23:11:18.604Z,5.80
2019-04-29T23:13:49.164Z,5.53
2019-04-29T23:16:19.570Z,6.10
2019-04-29T23:18:50.166Z,6.77
2019-04-29T23:21:37.518Z,6.13
2019-04-29T23:24:19.811Z,6.50
2019-04-29T23:26:50.195Z,6.70
2019-04-29T23:29:20.620Z,6.43
2019-04-29T23:31:51.078Z,6.17
2019-04-29T23:34:25.824Z,6.50
2019-04-29T23:36:53.650Z,7.50
2019-04-29T23:39:24.891Z,7.33
2019-04-29T23:41:55.509Z,8.13
2019-04-29T23:44:26.014Z,7.53
2019-04-29T23:46:56.453Z,7.60
2019-04-29T23:49:26.888Z,7.40
2019-04-29T23:51:57.295Z,7.50
2019-04-29T23:54:28.556Z,7.13
2019-04-29T23:57:03.606Z,7.23
2019-04-29T23:59:54.558Z,7.20
